MSR1493 HECA-OKKK
Flight info
| Callsign | MSR1493 |
|---|---|
| Flight time | 2h 2m |
| Altitude | 41000 |
| Route | CVO L315 HGD M872 WEJ J874 GAS B417 HFR A788 SOROR |
| Aircraft | A359/H-SDE2E3GHIJ3J4J5LM1ORWXY/LB1D1 |
Departure
| Time | 2026-04-29 17:17 |
|---|---|
| Airport | Cairo International Airport (HECA) |
Arrival
| Time | 2026-04-29 19:20 |
|---|---|
| Airport | Kuwait International Airport (OKKK) |
| Time | Latitude | Longitude | Altitude | Speed | Heading |
|---|---|---|---|---|---|
| 2026-04-29 16:39 | 30.10747 | 31.39706 | 381 ft | 0 kts | 255° |
| 2026-04-29 16:57 | 30.10749 | 31.39716 | 380 ft | 3 kts | 254° |
| 2026-04-29 16:58 | 30.10755 | 31.39738 | 380 ft | 3 kts | 251° |
| 2026-04-29 16:58 | 30.10762 | 31.39760 | 380 ft | 3 kts | 242° |
| 2026-04-29 16:58 | 30.10772 | 31.39778 | 380 ft | 3 kts | 213° |
| 2026-04-29 16:58 | 30.10784 | 31.39784 | 380 ft | 1 kts | 169° |
| 2026-04-29 16:59 | 30.10781 | 31.39784 | 380 ft | 2 kts | 169° |
| 2026-04-29 16:59 | 30.10763 | 31.39788 | 380 ft | 2 kts | 166° |
| 2026-04-29 16:59 | 30.10756 | 31.39791 | 380 ft | 0 kts | 164° |
| 2026-04-29 17:05 | 30.10735 | 31.39797 | 380 ft | 5 kts | 164° |
| 2026-04-29 17:05 | 30.10691 | 31.39800 | 380 ft | 7 kts | 194° |
| 2026-04-29 17:05 | 30.10657 | 31.39754 | 380 ft | 9 kts | 248° |
| 2026-04-29 17:05 | 30.10637 | 31.39679 | 380 ft | 8 kts | 255° |
| 2026-04-29 17:06 | 30.10621 | 31.39606 | 380 ft | 11 kts | 255° |
| 2026-04-29 17:06 | 30.10599 | 31.39511 | 380 ft | 13 kts | 255° |
| 2026-04-29 17:06 | 30.10573 | 31.39398 | 380 ft | 15 kts | 255° |
| 2026-04-29 17:06 | 30.10544 | 31.39324 | 380 ft | 7 kts | 212° |
| 2026-04-29 17:07 | 30.10490 | 31.39331 | 380 ft | 9 kts | 158° |
| 2026-04-29 17:07 | 30.10474 | 31.39367 | 380 ft | 8 kts | 94° |
| 2026-04-29 17:07 | 30.10495 | 31.39464 | 380 ft | 11 kts | 75° |
| 2026-04-29 17:07 | 30.10516 | 31.39556 | 380 ft | 13 kts | 74° |
| 2026-04-29 17:08 | 30.10540 | 31.39659 | 380 ft | 14 kts | 75° |
| 2026-04-29 17:08 | 30.10539 | 31.39733 | 380 ft | 9 kts | 122° |
| 2026-04-29 17:08 | 30.10481 | 31.39767 | 380 ft | 11 kts | 164° |
| 2026-04-29 17:08 | 30.10405 | 31.39789 | 380 ft | 10 kts | 166° |
| 2026-04-29 17:09 | 30.10385 | 31.39821 | 380 ft | 3 kts | 79° |
| 2026-04-29 17:09 | 30.10410 | 31.39859 | 380 ft | 9 kts | 49° |
| 2026-04-29 17:09 | 30.10469 | 31.39876 | 380 ft | 10 kts | 354° |
| 2026-04-29 17:09 | 30.10532 | 31.39844 | 380 ft | 10 kts | 318° |
| 2026-04-29 17:10 | 30.10554 | 31.39770 | 380 ft | 8 kts | 245° |
| 2026-04-29 17:10 | 30.10505 | 31.39760 | 380 ft | 11 kts | 171° |
| 2026-04-29 17:10 | 30.10423 | 31.39785 | 380 ft | 10 kts | 165° |
| 2026-04-29 17:10 | 30.10419 | 31.39786 | 380 ft | 0 kts | 165° |
| 2026-04-29 17:11 | 30.10373 | 31.39792 | 380 ft | 10 kts | 187° |
| 2026-04-29 17:11 | 30.10317 | 31.39739 | 380 ft | 12 kts | 231° |
| 2026-04-29 17:11 | 30.10258 | 31.39661 | 380 ft | 14 kts | 228° |
| 2026-04-29 17:11 | 30.10193 | 31.39580 | 380 ft | 10 kts | 217° |
| 2026-04-29 17:12 | 30.10153 | 31.39575 | 380 ft | 4 kts | 166° |
| 2026-04-29 17:12 | 30.10123 | 31.39598 | 380 ft | 6 kts | 139° |
| 2026-04-29 17:12 | 30.10091 | 31.39629 | 380 ft | 0 kts | 139° |
| 2026-04-29 17:15 | 30.10088 | 31.39632 | 380 ft | 5 kts | 139° |
| 2026-04-29 17:15 | 30.10023 | 31.39697 | 380 ft | 8 kts | 138° |
| 2026-04-29 17:16 | 30.10004 | 31.39751 | 380 ft | 8 kts | 100° |
| 2026-04-29 17:16 | 30.10000 | 31.39834 | 379 ft | 15 kts | 80° |
| 2026-04-29 17:16 | 30.10053 | 31.39935 | 376 ft | 6 kts | 50° |
| 2026-04-29 17:16 | 30.10061 | 31.39947 | 376 ft | 9 kts | 50° |
| 2026-04-29 17:17 | 30.10213 | 31.40150 | 380 ft | 68 kts | 49° |
| 2026-04-29 17:17 | 30.10669 | 31.40754 | 379 ft | 133 kts | 49° |
| 2026-04-29 17:17 | 30.11385 | 31.41722 | 525 ft | 175 kts | 47° |
| 2026-04-29 17:17 | 30.12147 | 31.42861 | 1128 ft | 184 kts | 50° |
| 2026-04-29 17:18 | 30.12965 | 31.44060 | 1758 ft | 196 kts | 49° |
| 2026-04-29 17:18 | 30.13824 | 31.45293 | 2347 ft | 198 kts | 49° |
| 2026-04-29 17:18 | 30.14732 | 31.46560 | 2702 ft | 214 kts | 48° |
| 2026-04-29 17:18 | 30.15731 | 31.47927 | 2986 ft | 232 kts | 47° |
| 2026-04-29 17:19 | 30.16657 | 31.49551 | 3233 ft | 254 kts | 64° |
| 2026-04-29 17:19 | 30.16955 | 31.51602 | 3708 ft | 267 kts | 96° |
| 2026-04-29 17:19 | 30.16238 | 31.53584 | 4272 ft | 273 kts | 127° |
| 2026-04-29 17:19 | 30.14888 | 31.55156 | 4882 ft | 278 kts | 142° |
| 2026-04-29 17:20 | 30.13283 | 31.56438 | 5482 ft | 282 kts | 149° |
| 2026-04-29 17:20 | 30.11581 | 31.57582 | 6121 ft | 285 kts | 151° |
| 2026-04-29 17:20 | 30.09856 | 31.58699 | 6847 ft | 283 kts | 151° |
| 2026-04-29 17:20 | 30.08145 | 31.59837 | 7480 ft | 285 kts | 150° |
| 2026-04-29 17:21 | 30.06433 | 31.61029 | 8038 ft | 290 kts | 149° |
| 2026-04-29 17:21 | 30.04709 | 31.62278 | 8636 ft | 295 kts | 149° |
| 2026-04-29 17:21 | 30.02978 | 31.63567 | 9241 ft | 297 kts | 148° |
| 2026-04-29 17:21 | 30.01236 | 31.64882 | 9835 ft | 301 kts | 148° |
| 2026-04-29 17:22 | 29.99470 | 31.66222 | 10288 ft | 309 kts | 148° |
| 2026-04-29 17:22 | 29.97632 | 31.67614 | 10512 ft | 324 kts | 148° |
| 2026-04-29 17:22 | 29.95706 | 31.69069 | 10748 ft | 338 kts | 148° |
| 2026-04-29 17:22 | 29.94382 | 31.70068 | 10911 ft | 347 kts | 148° |
| 2026-04-29 17:23 | 29.92322 | 31.71620 | 11119 ft | 360 kts | 148° |
| 2026-04-29 17:23 | 29.89481 | 31.73759 | 11408 ft | 375 kts | 148° |
| 2026-04-29 17:23 | 29.87998 | 31.74875 | 11622 ft | 380 kts | 148° |
| 2026-04-29 17:23 | 29.85042 | 31.77099 | 12140 ft | 386 kts | 148° |
| 2026-04-29 17:24 | 29.82782 | 31.78799 | 12545 ft | 390 kts | 148° |
| 2026-04-29 17:24 | 29.81247 | 31.79952 | 12820 ft | 392 kts | 148° |
| 2026-04-29 17:24 | 29.78946 | 31.81681 | 13228 ft | 395 kts | 148° |
| 2026-04-29 17:24 | 29.76633 | 31.83417 | 13619 ft | 399 kts | 148° |
| 2026-04-29 17:25 | 29.74295 | 31.85170 | 13959 ft | 403 kts | 148° |
| 2026-04-29 17:25 | 29.71969 | 31.86914 | 14313 ft | 405 kts | 148° |
| 2026-04-29 17:25 | 29.69599 | 31.88688 | 14713 ft | 408 kts | 148° |
| 2026-04-29 17:25 | 29.67214 | 31.90473 | 15105 ft | 410 kts | 148° |
| 2026-04-29 17:26 | 29.64822 | 31.92263 | 15480 ft | 412 kts | 148° |
| 2026-04-29 17:26 | 29.62412 | 31.94064 | 15873 ft | 414 kts | 148° |
| 2026-04-29 17:26 | 29.59983 | 31.95879 | 16258 ft | 417 kts | 148° |
| 2026-04-29 17:26 | 29.57545 | 31.97701 | 16642 ft | 419 kts | 148° |
| 2026-04-29 17:27 | 29.55095 | 31.99529 | 17012 ft | 422 kts | 148° |
| 2026-04-29 17:27 | 29.52624 | 32.01372 | 17374 ft | 424 kts | 148° |
| 2026-04-29 17:27 | 29.50145 | 32.03221 | 17729 ft | 426 kts | 148° |
| 2026-04-29 17:27 | 29.47647 | 32.05083 | 18099 ft | 429 kts | 148° |
| 2026-04-29 17:28 | 29.45139 | 32.06958 | 18426 ft | 431 kts | 148° |
| 2026-04-29 17:28 | 29.42610 | 32.08847 | 18695 ft | 435 kts | 148° |
| 2026-04-29 17:28 | 29.40060 | 32.10744 | 18996 ft | 438 kts | 149° |
| 2026-04-29 17:28 | 29.37494 | 32.12646 | 19309 ft | 440 kts | 149° |
| 2026-04-29 17:29 | 29.34911 | 32.14559 | 19599 ft | 443 kts | 149° |
| 2026-04-29 17:29 | 29.32314 | 32.16483 | 19900 ft | 446 kts | 149° |
| 2026-04-29 17:29 | 29.29705 | 32.18416 | 20201 ft | 448 kts | 149° |
| 2026-04-29 17:29 | 29.27078 | 32.20362 | 20483 ft | 451 kts | 150° |
| 2026-04-29 17:30 | 29.24432 | 32.22322 | 20751 ft | 454 kts | 150° |
| 2026-04-29 17:30 | 29.21776 | 32.24288 | 21036 ft | 456 kts | 150° |
| 2026-04-29 17:30 | 29.19101 | 32.26262 | 21257 ft | 459 kts | 150° |
| 2026-04-29 17:30 | 29.16414 | 32.28246 | 21559 ft | 460 kts | 150° |
| 2026-04-29 17:31 | 29.13718 | 32.30240 | 21809 ft | 463 kts | 150° |
| 2026-04-29 17:31 | 29.11043 | 32.32217 | 22084 ft | 465 kts | 150° |
| 2026-04-29 17:31 | 29.08319 | 32.34230 | 22351 ft | 467 kts | 150° |
| 2026-04-29 17:31 | 29.05578 | 32.36254 | 22633 ft | 469 kts | 151° |
| 2026-04-29 17:32 | 29.02829 | 32.38282 | 22885 ft | 472 kts | 151° |
| 2026-04-29 17:32 | 29.00067 | 32.40317 | 23156 ft | 474 kts | 151° |
| 2026-04-29 17:32 | 28.97287 | 32.42364 | 23430 ft | 476 kts | 151° |
| 2026-04-29 17:32 | 28.94499 | 32.44415 | 23672 ft | 478 kts | 151° |
| 2026-04-29 17:33 | 28.91696 | 32.46475 | 23898 ft | 480 kts | 151° |
| 2026-04-29 17:33 | 28.88886 | 32.48542 | 24131 ft | 482 kts | 152° |
| 2026-04-29 17:33 | 28.86056 | 32.50621 | 24338 ft | 484 kts | 152° |
| 2026-04-29 17:33 | 28.83220 | 32.52701 | 24552 ft | 485 kts | 152° |
| 2026-04-29 17:34 | 28.80369 | 32.54790 | 24736 ft | 489 kts | 152° |
| 2026-04-29 17:34 | 28.77503 | 32.56889 | 24947 ft | 491 kts | 152° |
| 2026-04-29 17:34 | 28.74660 | 32.58970 | 25111 ft | 494 kts | 152° |
| 2026-04-29 17:34 | 28.71750 | 32.61099 | 25233 ft | 499 kts | 152° |
| 2026-04-29 17:35 | 28.66842 | 32.64686 | 25476 ft | 512 kts | 152° |
| 2026-04-29 17:35 | 28.62781 | 32.67647 | 25836 ft | 524 kts | 152° |
| 2026-04-29 17:35 | 28.59711 | 32.69889 | 26386 ft | 525 kts | 152° |
| 2026-04-29 17:36 | 28.56633 | 32.72137 | 27018 ft | 525 kts | 152° |
| 2026-04-29 17:36 | 28.53562 | 32.74380 | 27610 ft | 525 kts | 152° |
| 2026-04-29 17:36 | 28.50499 | 32.76616 | 28335 ft | 522 kts | 152° |
| 2026-04-29 17:36 | 28.47441 | 32.78845 | 29013 ft | 521 kts | 152° |
| 2026-04-29 17:37 | 28.44389 | 32.81066 | 29658 ft | 521 kts | 152° |
| 2026-04-29 17:37 | 28.41336 | 32.83285 | 30253 ft | 520 kts | 152° |
| 2026-04-29 17:37 | 28.38289 | 32.85498 | 30820 ft | 518 kts | 153° |
| 2026-04-29 17:37 | 28.35262 | 32.87696 | 31430 ft | 515 kts | 153° |
| 2026-04-29 17:38 | 28.32249 | 32.89883 | 32029 ft | 512 kts | 153° |
| 2026-04-29 17:38 | 28.29259 | 32.92052 | 32646 ft | 509 kts | 153° |
| 2026-04-29 17:38 | 28.26283 | 32.94208 | 33174 ft | 507 kts | 153° |
| 2026-04-29 17:38 | 28.23314 | 32.96357 | 33640 ft | 505 kts | 153° |
| 2026-04-29 17:39 | 28.20366 | 32.98490 | 34250 ft | 500 kts | 153° |
| 2026-04-29 17:39 | 28.17485 | 33.00574 | 34703 ft | 498 kts | 153° |
| 2026-04-29 17:39 | 28.14557 | 33.02687 | 35002 ft | 499 kts | 153° |
| 2026-04-29 17:39 | 28.11628 | 33.04798 | 35314 ft | 500 kts | 153° |
| 2026-04-29 17:40 | 28.08692 | 33.06914 | 35637 ft | 500 kts | 153° |
| 2026-04-29 17:40 | 28.05756 | 33.09030 | 35968 ft | 500 kts | 154° |
| 2026-04-29 17:40 | 28.02817 | 33.11147 | 36286 ft | 501 kts | 154° |
| 2026-04-29 17:40 | 27.99884 | 33.13300 | 36588 ft | 503 kts | 152° |
| 2026-04-29 17:41 | 27.97019 | 33.15573 | 36893 ft | 504 kts | 150° |
| 2026-04-29 17:41 | 27.94181 | 33.17919 | 37194 ft | 505 kts | 149° |
| 2026-04-29 17:41 | 27.91357 | 33.20281 | 37451 ft | 505 kts | 150° |
| 2026-04-29 17:41 | 27.88532 | 33.22636 | 37791 ft | 504 kts | 150° |
| 2026-04-29 17:42 | 27.85705 | 33.24971 | 38068 ft | 503 kts | 151° |
| 2026-04-29 17:42 | 27.82870 | 33.27294 | 38319 ft | 503 kts | 151° |
| 2026-04-29 17:42 | 27.80026 | 33.29606 | 38547 ft | 504 kts | 151° |
| 2026-04-29 17:42 | 27.77172 | 33.31916 | 38746 ft | 504 kts | 152° |
| 2026-04-29 17:43 | 27.74317 | 33.34221 | 38982 ft | 503 kts | 152° |
| 2026-04-29 17:43 | 27.71513 | 33.36484 | 39170 ft | 502 kts | 152° |
| 2026-04-29 17:43 | 27.68670 | 33.38780 | 39356 ft | 502 kts | 152° |
| 2026-04-29 17:43 | 27.65830 | 33.41073 | 39569 ft | 501 kts | 152° |
| 2026-04-29 17:44 | 27.62997 | 33.43359 | 39778 ft | 501 kts | 152° |
| 2026-04-29 17:44 | 27.60166 | 33.45641 | 39949 ft | 500 kts | 152° |
| 2026-04-29 17:44 | 27.57341 | 33.47918 | 40151 ft | 499 kts | 152° |
| 2026-04-29 17:44 | 27.54520 | 33.50190 | 40349 ft | 498 kts | 152° |
| 2026-04-29 17:45 | 27.51703 | 33.52457 | 40519 ft | 498 kts | 152° |
| 2026-04-29 17:45 | 27.48891 | 33.54722 | 40687 ft | 497 kts | 152° |
| 2026-04-29 17:45 | 27.46077 | 33.56982 | 40829 ft | 497 kts | 152° |
| 2026-04-29 17:46 | 27.40435 | 33.61503 | 40925 ft | 500 kts | 152° |
| 2026-04-29 17:46 | 27.34727 | 33.66069 | 40924 ft | 507 kts | 152° |
| 2026-04-29 17:47 | 27.29258 | 33.71261 | 40912 ft | 527 kts | 137° |
| 2026-04-29 17:47 | 27.27057 | 33.74613 | 40895 ft | 540 kts | 125° |
| 2026-04-29 17:47 | 27.25447 | 33.78466 | 40914 ft | 551 kts | 112° |
| 2026-04-29 17:47 | 27.24564 | 33.82687 | 40911 ft | 559 kts | 98° |
| 2026-04-29 17:48 | 27.24477 | 33.87070 | 40928 ft | 563 kts | 86° |
| 2026-04-29 17:48 | 27.25429 | 33.95850 | 40907 ft | 570 kts | 80° |
| 2026-04-29 17:49 | 27.26766 | 34.04668 | 40910 ft | 575 kts | 79° |
| 2026-04-29 17:49 | 27.28075 | 34.13583 | 40900 ft | 580 kts | 80° |
| 2026-04-29 17:50 | 27.29305 | 34.22575 | 40886 ft | 583 kts | 81° |
| 2026-04-29 17:50 | 27.30502 | 34.31607 | 40892 ft | 585 kts | 81° |
| 2026-04-29 17:51 | 27.31685 | 34.40600 | 40890 ft | 585 kts | 81° |
| 2026-04-29 17:51 | 27.32875 | 34.49653 | 40892 ft | 585 kts | 81° |
| 2026-04-29 17:52 | 27.34062 | 34.58698 | 40891 ft | 585 kts | 81° |
| 2026-04-29 17:52 | 27.35244 | 34.67753 | 40892 ft | 585 kts | 81° |
| 2026-04-29 17:53 | 27.36419 | 34.76807 | 40882 ft | 585 kts | 81° |
| 2026-04-29 17:53 | 27.37591 | 34.85885 | 40893 ft | 586 kts | 82° |
| 2026-04-29 17:54 | 27.38757 | 34.94960 | 40898 ft | 586 kts | 82° |
| 2026-04-29 17:54 | 27.39917 | 35.04042 | 40898 ft | 587 kts | 82° |
| 2026-04-29 17:55 | 27.41072 | 35.13136 | 40899 ft | 586 kts | 82° |
| 2026-04-29 17:55 | 27.42221 | 35.22218 | 40908 ft | 586 kts | 82° |
| 2026-04-29 17:56 | 27.43362 | 35.31293 | 40905 ft | 586 kts | 82° |
| 2026-04-29 17:56 | 27.44492 | 35.40330 | 40915 ft | 587 kts | 82° |
| 2026-04-29 17:57 | 27.45624 | 35.49429 | 40918 ft | 587 kts | 82° |
| 2026-04-29 17:57 | 27.46750 | 35.58531 | 40925 ft | 588 kts | 82° |
| 2026-04-29 17:58 | 27.47873 | 35.67660 | 40950 ft | 588 kts | 82° |
| 2026-04-29 17:58 | 27.48989 | 35.76774 | 40923 ft | 587 kts | 82° |
| 2026-04-29 17:59 | 27.50097 | 35.85882 | 40928 ft | 587 kts | 83° |
| 2026-04-29 17:59 | 27.51201 | 35.95006 | 40944 ft | 587 kts | 83° |
| 2026-04-29 18:00 | 27.52298 | 36.04123 | 40944 ft | 587 kts | 83° |
| 2026-04-29 18:00 | 27.53390 | 36.13245 | 40959 ft | 587 kts | 83° |
| 2026-04-29 18:01 | 27.54478 | 36.22375 | 40959 ft | 587 kts | 83° |
| 2026-04-29 18:01 | 27.55557 | 36.31493 | 40954 ft | 587 kts | 83° |
| 2026-04-29 18:02 | 27.56630 | 36.40625 | 40975 ft | 588 kts | 83° |
| 2026-04-29 18:02 | 27.57696 | 36.49743 | 40976 ft | 587 kts | 83° |
| 2026-04-29 18:03 | 27.58754 | 36.58826 | 40981 ft | 588 kts | 83° |
| 2026-04-29 18:03 | 27.59810 | 36.67966 | 40985 ft | 588 kts | 83° |
| 2026-04-29 18:04 | 27.60854 | 36.77076 | 40977 ft | 589 kts | 83° |
| 2026-04-29 18:04 | 27.61901 | 36.86233 | 40999 ft | 589 kts | 83° |
| 2026-04-29 18:05 | 27.62942 | 36.95396 | 40989 ft | 588 kts | 83° |
| 2026-04-29 18:05 | 27.63975 | 37.04541 | 40982 ft | 589 kts | 84° |
| 2026-04-29 18:06 | 27.65003 | 37.13707 | 40987 ft | 589 kts | 84° |
| 2026-04-29 18:06 | 27.66027 | 37.22881 | 40976 ft | 589 kts | 84° |
| 2026-04-29 18:07 | 27.67043 | 37.32044 | 40967 ft | 589 kts | 84° |
| 2026-04-29 18:07 | 27.68053 | 37.41222 | 40960 ft | 589 kts | 84° |
| 2026-04-29 18:08 | 27.69058 | 37.50397 | 40948 ft | 589 kts | 84° |
| 2026-04-29 18:08 | 27.70057 | 37.59572 | 40951 ft | 589 kts | 84° |
| 2026-04-29 18:09 | 27.71049 | 37.68744 | 40946 ft | 589 kts | 84° |
| 2026-04-29 18:09 | 27.72036 | 37.77925 | 40949 ft | 589 kts | 84° |
| 2026-04-29 18:10 | 27.73017 | 37.87109 | 40949 ft | 589 kts | 84° |
| 2026-04-29 18:10 | 27.73991 | 37.96293 | 40937 ft | 590 kts | 85° |
| 2026-04-29 18:11 | 27.74959 | 38.05487 | 40945 ft | 590 kts | 85° |
| 2026-04-29 18:11 | 27.75923 | 38.14679 | 40942 ft | 590 kts | 85° |
| 2026-04-29 18:12 | 27.76881 | 38.23880 | 40943 ft | 590 kts | 85° |
| 2026-04-29 18:12 | 27.77673 | 38.31536 | 40940 ft | 591 kts | 85° |
| 2026-04-29 18:13 | 27.78773 | 38.42243 | 40947 ft | 591 kts | 85° |
| 2026-04-29 18:13 | 27.79713 | 38.51459 | 40956 ft | 591 kts | 85° |
| 2026-04-29 18:14 | 27.80497 | 38.59185 | 40943 ft | 590 kts | 85° |
| 2026-04-29 18:14 | 27.81426 | 38.68404 | 40935 ft | 591 kts | 85° |
| 2026-04-29 18:15 | 27.82344 | 38.77576 | 40950 ft | 592 kts | 85° |
| 2026-04-29 18:15 | 27.83263 | 38.86819 | 40952 ft | 592 kts | 85° |
| 2026-04-29 18:16 | 27.84176 | 38.96065 | 40958 ft | 592 kts | 85° |
| 2026-04-29 18:16 | 27.85085 | 39.05338 | 40975 ft | 593 kts | 85° |
| 2026-04-29 18:17 | 27.85987 | 39.14593 | 40950 ft | 593 kts | 85° |
| 2026-04-29 18:17 | 27.86880 | 39.23840 | 40968 ft | 593 kts | 86° |
| 2026-04-29 18:18 | 27.87770 | 39.33114 | 40969 ft | 594 kts | 86° |
| 2026-04-29 18:18 | 27.88654 | 39.42388 | 40968 ft | 593 kts | 86° |
| 2026-04-29 18:19 | 27.89532 | 39.51664 | 40973 ft | 593 kts | 86° |
| 2026-04-29 18:19 | 27.90403 | 39.60933 | 40973 ft | 593 kts | 86° |
| 2026-04-29 18:20 | 27.91268 | 39.70205 | 40981 ft | 593 kts | 86° |
| 2026-04-29 18:20 | 27.92126 | 39.79474 | 40983 ft | 593 kts | 86° |
| 2026-04-29 18:21 | 27.92979 | 39.88746 | 40983 ft | 592 kts | 86° |
| 2026-04-29 18:21 | 27.93823 | 39.98005 | 40986 ft | 592 kts | 86° |
| 2026-04-29 18:22 | 27.94661 | 40.07263 | 40984 ft | 591 kts | 86° |
| 2026-04-29 18:22 | 27.95491 | 40.16505 | 40990 ft | 591 kts | 86° |
| 2026-04-29 18:23 | 27.96310 | 40.25691 | 40972 ft | 591 kts | 86° |
| 2026-04-29 18:23 | 27.97128 | 40.34932 | 40993 ft | 591 kts | 86° |
| 2026-04-29 18:24 | 27.97941 | 40.44183 | 40993 ft | 590 kts | 86° |
| 2026-04-29 18:24 | 27.98745 | 40.53418 | 41000 ft | 590 kts | 87° |
| 2026-04-29 18:25 | 27.99544 | 40.62653 | 41008 ft | 590 kts | 87° |
| 2026-04-29 18:25 | 28.00335 | 40.71891 | 41007 ft | 590 kts | 87° |
| 2026-04-29 18:26 | 28.01122 | 40.81138 | 41006 ft | 590 kts | 87° |
| 2026-04-29 18:26 | 28.01904 | 40.90390 | 41007 ft | 590 kts | 87° |
| 2026-04-29 18:27 | 28.02677 | 40.99634 | 41010 ft | 590 kts | 87° |
| 2026-04-29 18:27 | 28.03445 | 41.08878 | 41014 ft | 590 kts | 87° |
| 2026-04-29 18:28 | 28.04206 | 41.18125 | 41008 ft | 590 kts | 87° |
| 2026-04-29 18:28 | 28.04961 | 41.27376 | 41017 ft | 590 kts | 88° |
| 2026-04-29 18:29 | 28.05710 | 41.36627 | 41004 ft | 590 kts | 88° |
| 2026-04-29 18:29 | 28.06453 | 41.45869 | 41011 ft | 589 kts | 88° |
| 2026-04-29 18:30 | 28.07189 | 41.55113 | 41012 ft | 589 kts | 88° |
| 2026-04-29 18:30 | 28.07918 | 41.64350 | 41018 ft | 589 kts | 88° |
| 2026-04-29 18:31 | 28.08642 | 41.73601 | 41004 ft | 590 kts | 88° |
| 2026-04-29 18:31 | 28.09360 | 41.82858 | 41001 ft | 590 kts | 88° |
| 2026-04-29 18:32 | 28.10072 | 41.92106 | 40999 ft | 590 kts | 88° |
| 2026-04-29 18:32 | 28.11127 | 42.05972 | 40990 ft | 589 kts | 88° |
| 2026-04-29 18:33 | 28.11822 | 42.15214 | 40993 ft | 589 kts | 88° |
| 2026-04-29 18:33 | 28.12507 | 42.24405 | 40983 ft | 589 kts | 89° |
| 2026-04-29 18:34 | 28.13079 | 42.32149 | 40985 ft | 589 kts | 89° |
| 2026-04-29 18:34 | 28.13865 | 42.42888 | 40971 ft | 588 kts | 89° |
| 2026-04-29 18:35 | 28.14535 | 42.52121 | 40970 ft | 587 kts | 89° |
| 2026-04-29 18:35 | 28.15197 | 42.61341 | 40979 ft | 587 kts | 89° |
| 2026-04-29 18:36 | 28.15851 | 42.70543 | 40976 ft | 586 kts | 89° |
| 2026-04-29 18:36 | 28.16501 | 42.79761 | 40976 ft | 586 kts | 89° |
| 2026-04-29 18:37 | 28.17143 | 42.88960 | 40966 ft | 586 kts | 89° |
| 2026-04-29 18:37 | 28.17771 | 42.98171 | 40966 ft | 586 kts | 90° |
| 2026-04-29 18:38 | 28.18391 | 43.07375 | 40987 ft | 586 kts | 89° |
| 2026-04-29 18:38 | 28.19026 | 43.16592 | 40966 ft | 586 kts | 89° |
| 2026-04-29 18:39 | 28.19652 | 43.25814 | 40964 ft | 586 kts | 90° |
| 2026-04-29 18:39 | 28.20260 | 43.34960 | 40972 ft | 586 kts | 90° |
| 2026-04-29 18:40 | 28.20865 | 43.44177 | 40938 ft | 586 kts | 90° |
| 2026-04-29 18:40 | 28.21464 | 43.53390 | 40997 ft | 586 kts | 90° |
| 2026-04-29 18:41 | 28.22645 | 43.71828 | 40963 ft | 586 kts | 90° |
| 2026-04-29 18:42 | 28.23226 | 43.81053 | 40964 ft | 586 kts | 90° |
| 2026-04-29 18:42 | 28.23800 | 43.90251 | 40959 ft | 585 kts | 90° |
| 2026-04-29 18:43 | 28.24367 | 43.99447 | 40988 ft | 584 kts | 90° |
| 2026-04-29 18:43 | 28.24926 | 44.08628 | 40955 ft | 584 kts | 91° |
| 2026-04-29 18:44 | 28.25480 | 44.17814 | 40958 ft | 583 kts | 91° |
| 2026-04-29 18:44 | 28.26028 | 44.26987 | 40956 ft | 582 kts | 91° |
| 2026-04-29 18:45 | 28.26565 | 44.36089 | 40965 ft | 582 kts | 91° |
| 2026-04-29 18:45 | 28.27098 | 44.45245 | 40986 ft | 581 kts | 91° |
| 2026-04-29 18:46 | 28.27626 | 44.54409 | 40960 ft | 582 kts | 91° |
| 2026-04-29 18:46 | 28.28148 | 44.63575 | 40945 ft | 582 kts | 91° |
| 2026-04-29 18:47 | 28.28664 | 44.72733 | 40963 ft | 582 kts | 92° |
| 2026-04-29 18:47 | 28.29173 | 44.81889 | 40963 ft | 581 kts | 92° |
| 2026-04-29 18:48 | 28.29676 | 44.91047 | 40998 ft | 581 kts | 92° |
| 2026-04-29 18:48 | 28.30173 | 45.00217 | 40950 ft | 583 kts | 92° |
| 2026-04-29 18:49 | 28.30664 | 45.09392 | 40966 ft | 583 kts | 92° |
| 2026-04-29 18:49 | 28.31150 | 45.18571 | 40964 ft | 582 kts | 92° |
| 2026-04-29 18:50 | 28.31630 | 45.27744 | 40965 ft | 583 kts | 92° |
| 2026-04-29 18:50 | 28.32103 | 45.36932 | 40969 ft | 583 kts | 92° |
| 2026-04-29 18:51 | 28.32571 | 45.46120 | 40969 ft | 584 kts | 92° |
| 2026-04-29 18:51 | 28.33033 | 45.55320 | 40969 ft | 584 kts | 92° |
| 2026-04-29 18:52 | 28.33489 | 45.64528 | 40968 ft | 584 kts | 92° |
| 2026-04-29 18:52 | 28.33939 | 45.73735 | 40947 ft | 584 kts | 92° |
| 2026-04-29 18:53 | 28.34380 | 45.82866 | 40968 ft | 583 kts | 92° |
| 2026-04-29 18:53 | 28.34820 | 45.92106 | 40968 ft | 582 kts | 92° |
| 2026-04-29 18:54 | 28.35246 | 46.01224 | 40990 ft | 582 kts | 92° |
| 2026-04-29 18:54 | 28.35702 | 46.10406 | 40988 ft | 584 kts | 89° |
| 2026-04-29 18:55 | 28.36837 | 46.19567 | 40996 ft | 587 kts | 86° |
| 2026-04-29 18:55 | 28.38145 | 46.28731 | 40987 ft | 588 kts | 85° |
| 2026-04-29 18:56 | 28.38812 | 46.33291 | 40792 ft | 585 kts | 85° |
| 2026-04-29 18:56 | 28.39478 | 46.37856 | 40248 ft | 586 kts | 85° |
| 2026-04-29 18:56 | 28.40139 | 46.42427 | 39552 ft | 588 kts | 85° |
| 2026-04-29 18:56 | 28.40796 | 46.47015 | 38878 ft | 590 kts | 85° |
| 2026-04-29 18:57 | 28.41452 | 46.51626 | 37989 ft | 592 kts | 85° |
| 2026-04-29 18:57 | 28.42107 | 46.56263 | 36919 ft | 597 kts | 85° |
| 2026-04-29 18:57 | 28.42764 | 46.60940 | 35829 ft | 602 kts | 85° |
| 2026-04-29 18:57 | 28.43427 | 46.65664 | 34739 ft | 608 kts | 85° |
| 2026-04-29 18:58 | 28.44095 | 46.70429 | 33600 ft | 614 kts | 85° |
| 2026-04-29 18:58 | 28.44767 | 46.75230 | 32518 ft | 614 kts | 84° |
| 2026-04-29 18:58 | 28.45438 | 46.80005 | 31559 ft | 610 kts | 84° |
| 2026-04-29 18:58 | 28.46104 | 46.84757 | 30587 ft | 607 kts | 83° |
| 2026-04-29 18:59 | 28.46766 | 46.89486 | 29530 ft | 603 kts | 83° |
| 2026-04-29 18:59 | 28.47417 | 46.94164 | 28647 ft | 596 kts | 83° |
| 2026-04-29 18:59 | 28.47842 | 46.97239 | 28172 ft | 590 kts | 83° |
| 2026-04-29 18:59 | 28.48674 | 47.03270 | 27357 ft | 577 kts | 83° |
| 2026-04-29 19:00 | 28.49289 | 47.07745 | 26699 ft | 569 kts | 83° |
| 2026-04-29 19:00 | 28.49895 | 47.12162 | 26039 ft | 562 kts | 83° |
| 2026-04-29 19:00 | 28.50492 | 47.16527 | 25479 ft | 553 kts | 83° |
| 2026-04-29 19:00 | 28.51077 | 47.20811 | 24943 ft | 544 kts | 83° |
| 2026-04-29 19:01 | 28.51467 | 47.23670 | 24570 ft | 539 kts | 83° |
| 2026-04-29 19:01 | 28.52035 | 47.27854 | 24000 ft | 532 kts | 83° |
| 2026-04-29 19:01 | 28.52596 | 47.31985 | 23380 ft | 525 kts | 83° |
| 2026-04-29 19:01 | 28.53146 | 47.36052 | 22681 ft | 518 kts | 83° |
| 2026-04-29 19:02 | 28.53681 | 47.40020 | 22000 ft | 511 kts | 83° |
| 2026-04-29 19:02 | 28.54214 | 47.43981 | 21370 ft | 503 kts | 83° |
| 2026-04-29 19:02 | 28.54738 | 47.47882 | 20711 ft | 496 kts | 83° |
| 2026-04-29 19:02 | 28.55255 | 47.51734 | 20078 ft | 489 kts | 82° |
| 2026-04-29 19:03 | 28.55762 | 47.55529 | 19438 ft | 482 kts | 82° |
| 2026-04-29 19:03 | 28.56261 | 47.59268 | 18827 ft | 475 kts | 82° |
| 2026-04-29 19:03 | 28.56752 | 47.62952 | 18225 ft | 468 kts | 82° |
| 2026-04-29 19:03 | 28.57129 | 47.66603 | 17469 ft | 462 kts | 87° |
| 2026-04-29 19:04 | 28.57265 | 47.70235 | 16699 ft | 458 kts | 89° |
| 2026-04-29 19:04 | 28.57346 | 47.73840 | 15949 ft | 453 kts | 90° |
| 2026-04-29 19:04 | 28.57422 | 47.77406 | 15207 ft | 449 kts | 90° |
| 2026-04-29 19:04 | 28.57498 | 47.80945 | 14436 ft | 446 kts | 90° |
| 2026-04-29 19:05 | 28.57581 | 47.84458 | 13725 ft | 442 kts | 90° |
| 2026-04-29 19:05 | 28.57885 | 47.87915 | 12930 ft | 436 kts | 80° |
| 2026-04-29 19:05 | 28.58770 | 47.91152 | 11648 ft | 424 kts | 65° |
| 2026-04-29 19:05 | 28.60386 | 47.93899 | 10340 ft | 415 kts | 46° |
| 2026-04-29 19:06 | 28.62631 | 47.95862 | 9183 ft | 400 kts | 25° |
| 2026-04-29 19:06 | 28.65180 | 47.96751 | 8627 ft | 368 kts | 8° |
| 2026-04-29 19:06 | 28.69879 | 47.97586 | 7777 ft | 318 kts | 6° |
| 2026-04-29 19:07 | 28.71998 | 47.97965 | 7313 ft | 301 kts | 6° |
| 2026-04-29 19:07 | 28.73349 | 47.98213 | 6913 ft | 294 kts | 7° |
| 2026-04-29 19:07 | 28.76010 | 47.98712 | 6066 ft | 285 kts | 7° |
| 2026-04-29 19:07 | 28.77603 | 47.99016 | 5505 ft | 280 kts | 7° |
| 2026-04-29 19:08 | 28.79322 | 47.99347 | 4935 ft | 274 kts | 7° |
| 2026-04-29 19:08 | 28.81176 | 47.99706 | 4280 ft | 267 kts | 8° |
| 2026-04-29 19:08 | 28.82993 | 48.00059 | 3615 ft | 262 kts | 8° |
| 2026-04-29 19:08 | 28.84763 | 48.00405 | 3117 ft | 254 kts | 8° |
| 2026-04-29 19:09 | 28.86505 | 48.00745 | 2935 ft | 255 kts | 8° |
| 2026-04-29 19:09 | 28.88251 | 48.01087 | 2910 ft | 254 kts | 8° |
| 2026-04-29 19:09 | 28.89983 | 48.01389 | 2908 ft | 245 kts | 4° |
| 2026-04-29 19:09 | 28.91610 | 48.01169 | 2911 ft | 233 kts | 342° |
| 2026-04-29 19:10 | 28.93163 | 48.00513 | 2920 ft | 248 kts | 339° |
| 2026-04-29 19:10 | 28.94775 | 47.99756 | 2914 ft | 252 kts | 338° |
| 2026-04-29 19:10 | 28.96401 | 47.98988 | 2914 ft | 253 kts | 338° |
| 2026-04-29 19:10 | 28.98029 | 47.98225 | 2912 ft | 253 kts | 338° |
| 2026-04-29 19:11 | 28.99655 | 47.97467 | 2912 ft | 253 kts | 338° |
| 2026-04-29 19:11 | 29.01284 | 47.96709 | 2912 ft | 253 kts | 338° |
| 2026-04-29 19:11 | 29.02911 | 47.95953 | 2913 ft | 253 kts | 338° |
| 2026-04-29 19:11 | 29.04537 | 47.95197 | 2913 ft | 253 kts | 338° |
| 2026-04-29 19:12 | 29.06158 | 47.94389 | 2912 ft | 253 kts | 336° |
| 2026-04-29 19:12 | 29.07764 | 47.93561 | 2913 ft | 253 kts | 336° |
| 2026-04-29 19:12 | 29.09373 | 47.92736 | 2913 ft | 253 kts | 336° |
| 2026-04-29 19:12 | 29.10441 | 47.92192 | 2883 ft | 254 kts | 336° |
| 2026-04-29 19:13 | 29.12596 | 47.91097 | 2640 ft | 253 kts | 336° |
| 2026-04-29 19:13 | 29.14208 | 47.90280 | 2561 ft | 253 kts | 336° |
| 2026-04-29 19:13 | 29.15822 | 47.89462 | 2535 ft | 253 kts | 336° |
| 2026-04-29 19:13 | 29.17433 | 47.88647 | 2502 ft | 253 kts | 336° |
| 2026-04-29 19:14 | 29.19040 | 47.87835 | 2495 ft | 253 kts | 336° |
| 2026-04-29 19:14 | 29.20649 | 47.87021 | 2492 ft | 253 kts | 336° |
| 2026-04-29 19:14 | 29.22256 | 47.86207 | 2496 ft | 253 kts | 336° |
| 2026-04-29 19:14 | 29.23866 | 47.85391 | 2493 ft | 253 kts | 336° |
| 2026-04-29 19:15 | 29.25472 | 47.84578 | 2490 ft | 253 kts | 336° |
| 2026-04-29 19:15 | 29.27079 | 47.83763 | 2491 ft | 252 kts | 336° |
| 2026-04-29 19:15 | 29.28681 | 47.82950 | 2497 ft | 252 kts | 336° |
| 2026-04-29 19:15 | 29.30284 | 47.82137 | 2497 ft | 252 kts | 336° |
| 2026-04-29 19:16 | 29.31920 | 47.81430 | 2491 ft | 252 kts | 347° |
| 2026-04-29 19:16 | 29.33656 | 47.81548 | 2494 ft | 255 kts | 19° |
| 2026-04-29 19:16 | 29.35039 | 47.82802 | 2497 ft | 260 kts | 52° |
| 2026-04-29 19:16 | 29.35956 | 47.84601 | 2495 ft | 263 kts | 59° |
| 2026-04-29 19:17 | 29.36732 | 47.86501 | 2492 ft | 265 kts | 68° |
| 2026-04-29 19:17 | 29.36808 | 47.88612 | 2496 ft | 272 kts | 102° |
| 2026-04-29 19:17 | 29.35839 | 47.90465 | 2495 ft | 277 kts | 137° |
| 2026-04-29 19:17 | 29.34136 | 47.91463 | 2332 ft | 277 kts | 169° |
| 2026-04-29 19:18 | 29.32255 | 47.91878 | 1907 ft | 272 kts | 166° |
| 2026-04-29 19:18 | 29.31104 | 47.92320 | 1663 ft | 255 kts | 157° |
| 2026-04-29 19:18 | 29.29124 | 47.93391 | 1261 ft | 217 kts | 153° |
| 2026-04-29 19:18 | 29.27840 | 47.94126 | 984 ft | 196 kts | 154° |
| 2026-04-29 19:19 | 29.26656 | 47.94756 | 752 ft | 180 kts | 157° |
| 2026-04-29 19:19 | 29.25568 | 47.95355 | 539 ft | 167 kts | 154° |
| 2026-04-29 19:19 | 29.24553 | 47.95890 | 315 ft | 157 kts | 157° |
| 2026-04-29 19:19 | 29.23582 | 47.96406 | 169 ft | 145 kts | 157° |
| 2026-04-29 19:20 | 29.22795 | 47.96820 | 168 ft | 102 kts | 155° |
| 2026-04-29 19:20 | 29.22292 | 47.97089 | 171 ft | 62 kts | 155° |
| 2026-04-29 19:20 | 29.22021 | 47.97246 | 173 ft | 35 kts | 142° |
| 2026-04-29 19:20 | 29.21935 | 47.97413 | 172 ft | 1 kts | 108° |
| 2026-04-29 19:21 | 29.21935 | 47.97415 | 172 ft | 0 kts | 108° |
| 2026-04-29 19:21 | 29.21931 | 47.97430 | 172 ft | 4 kts | 104° |
| 2026-04-29 19:21 | 29.21930 | 47.97471 | 172 ft | 6 kts | 79° |
| 2026-04-29 19:21 | 29.21962 | 47.97502 | 172 ft | 6 kts | 8° |
| 2026-04-29 19:22 | 29.22019 | 47.97480 | 172 ft | 11 kts | 336° |
| 2026-04-29 19:22 | 29.22095 | 47.97441 | 173 ft | 13 kts | 336° |
| 2026-04-29 19:22 | 29.22183 | 47.97394 | 173 ft | 15 kts | 333° |
| 2026-04-29 19:22 | 29.22284 | 47.97337 | 173 ft | 17 kts | 333° |
| 2026-04-29 19:23 | 29.22401 | 47.97277 | 173 ft | 19 kts | 336° |
| 2026-04-29 19:23 | 29.22531 | 47.97210 | 173 ft | 22 kts | 335° |
| 2026-04-29 19:23 | 29.22674 | 47.97133 | 173 ft | 24 kts | 335° |
| 2026-04-29 19:23 | 29.22830 | 47.97050 | 174 ft | 26 kts | 335° |
| 2026-04-29 19:24 | 29.22998 | 47.96961 | 174 ft | 27 kts | 335° |
| 2026-04-29 19:24 | 29.23178 | 47.96865 | 172 ft | 30 kts | 335° |
| 2026-04-29 19:24 | 29.23375 | 47.96761 | 171 ft | 32 kts | 335° |
| 2026-04-29 19:24 | 29.23461 | 47.96714 | 170 ft | 7 kts | 334° |
| 2026-04-29 19:25 | 29.23517 | 47.96686 | 170 ft | 10 kts | 336° |
| 2026-04-29 19:25 | 29.23590 | 47.96648 | 170 ft | 13 kts | 335° |
| 2026-04-29 19:25 | 29.23663 | 47.96666 | 172 ft | 12 kts | 56° |
| 2026-04-29 19:25 | 29.23703 | 47.96757 | 172 ft | 14 kts | 64° |
| 2026-04-29 19:26 | 29.23749 | 47.96868 | 173 ft | 17 kts | 65° |
| 2026-04-29 19:26 | 29.23797 | 47.96987 | 173 ft | 8 kts | 70° |
| 2026-04-29 19:26 | 29.23789 | 47.97052 | 173 ft | 7 kts | 126° |
| 2026-04-29 19:26 | 29.23753 | 47.97080 | 173 ft | 4 kts | 148° |
| 2026-04-29 19:27 | 29.23747 | 47.97101 | 173 ft | 4 kts | 101° |
| 2026-04-29 19:27 | 29.23749 | 47.97120 | 173 ft | 6 kts | 79° |
| 2026-04-29 19:27 | 29.23761 | 47.97156 | 173 ft | 5 kts | 65° |
| 2026-04-29 19:27 | 29.23763 | 47.97161 | 173 ft | 0 kts | 65° |